createdAt,value
2018-08-25T00:00:05.373Z,46.50
2018-08-25T00:01:09.863Z,46.50
2018-08-25T00:02:15.223Z,46.50
2018-08-25T00:03:19.864Z,46.50
2018-08-25T00:04:24.470Z,46.40
2018-08-25T00:05:28.945Z,46.40
2018-08-25T00:06:33.401Z,46.40
2018-08-25T00:07:37.734Z,46.40
2018-08-25T00:08:42.147Z,46.40
2018-08-25T00:09:46.462Z,46.40
2018-08-25T00:10:50.982Z,46.30
2018-08-25T00:11:55.243Z,46.30
2018-08-25T00:13:00.349Z,46.30
2018-08-25T00:14:04.818Z,46.30
2018-08-25T00:15:09.326Z,46.30
2018-08-25T00:16:14.395Z,46.20
2018-08-25T00:17:18.758Z,46.20
2018-08-25T00:18:22.998Z,46.20
2018-08-25T00:19:27.412Z,46.20
2018-08-25T00:20:31.656Z,46.20
2018-08-25T00:21:36.133Z,46.20
2018-08-25T00:22:41.183Z,46.20
2018-08-25T00:23:45.595Z,46.20
2018-08-25T00:24:50.719Z,46.10
2018-08-25T00:25:55.149Z,46.10
2018-08-25T00:26:59.517Z,46.10
2018-08-25T00:28:03.765Z,46.10
2018-08-25T00:29:08.324Z,46.10
2018-08-25T00:30:12.804Z,46.10
2018-08-25T00:31:18.005Z,46.10
2018-08-25T00:32:23.065Z,46.00
2018-08-25T00:33:27.521Z,46.00
2018-08-25T00:34:32.514Z,46.10
2018-08-25T00:35:36.846Z,46.00
2018-08-25T00:36:41.238Z,46.00
2018-08-25T00:37:45.710Z,46.00
2018-08-25T00:38:50.269Z,46.00
2018-08-25T00:39:54.706Z,46.60
2018-08-25T00:40:59.102Z,46.00
2018-08-25T00:42:04.066Z,46.00
2018-08-25T00:43:08.556Z,46.00
2018-08-25T00:44:13.648Z,45.90
2018-08-25T00:45:18.027Z,45.90
2018-08-25T00:46:22.503Z,45.90
2018-08-25T00:47:26.889Z,45.90
2018-08-25T00:48:32.016Z,45.90
2018-08-25T00:49:37.234Z,45.90
2018-08-25T00:50:41.857Z,45.90
2018-08-25T00:51:46.090Z,45.90
2018-08-25T00:52:50.563Z,45.80
2018-08-25T00:53:54.930Z,45.90
2018-08-25T00:54:59.428Z,45.90
2018-08-25T00:56:03.803Z,45.80
2018-08-25T00:57:08.161Z,45.80
2018-08-25T00:58:13.621Z,45.80
2018-08-25T00:59:18.269Z,45.80
2018-08-25T01:00:23.271Z,46.50
2018-08-25T01:01:27.492Z,45.90
2018-08-25T01:02:32.620Z,45.90
2018-08-25T01:03:37.639Z,45.90
2018-08-25T01:04:41.980Z,45.90
2018-08-25T01:05:46.960Z,45.90
2018-08-25T01:06:51.555Z,45.90
2018-08-25T01:07:55.989Z,45.90
2018-08-25T01:09:00.494Z,45.90
2018-08-25T01:10:05.358Z,45.90
2018-08-25T01:11:09.709Z,45.90
2018-08-25T01:12:14.899Z,45.90
2018-08-25T01:13:19.913Z,45.90
2018-08-25T01:14:24.243Z,45.90
2018-08-25T01:15:28.949Z,46.60
2018-08-25T01:16:33.239Z,45.90
2018-08-25T01:17:37.564Z,45.90
2018-08-25T01:18:42.039Z,45.90
2018-08-25T01:19:46.464Z,45.90
2018-08-25T01:20:51.100Z,45.90
2018-08-25T01:21:55.401Z,45.90
2018-08-25T01:22:59.748Z,45.90
2018-08-25T01:24:05.302Z,45.90
2018-08-25T01:25:09.799Z,45.90
2018-08-25T01:26:14.980Z,45.90
2018-08-25T01:27:19.649Z,45.90
2018-08-25T01:28:24.108Z,45.90
2018-08-25T01:29:28.590Z,45.90
2018-08-25T01:30:32.827Z,45.90
2018-08-25T01:31:37.222Z,46.00
2018-08-25T01:32:41.751Z,45.90
2018-08-25T01:33:47.117Z,45.90
2018-08-25T01:34:51.566Z,45.90
2018-08-25T01:35:56.022Z,45.90
2018-08-25T01:37:01.061Z,45.90
2018-08-25T01:38:05.391Z,45.90
2018-08-25T01:39:10.400Z,45.90
2018-08-25T01:40:15.585Z,45.90
2018-08-25T01:41:20.478Z,45.90
2018-08-25T01:42:25.876Z,45.90
2018-08-25T01:43:31.013Z,45.90
2018-08-25T01:44:36.352Z,45.90
2018-08-25T01:45:40.657Z,45.90
2018-08-25T01:46:45.710Z,45.90
2018-08-25T01:47:50.107Z,45.90
2018-08-25T01:48:55.163Z,45.90
2018-08-25T01:49:59.663Z,45.90
2018-08-25T01:51:04.817Z,45.90
2018-08-25T01:52:09.871Z,45.90
2018-08-25T01:53:14.286Z,45.90
2018-08-25T01:54:18.724Z,45.80
2018-08-25T01:55:23.177Z,45.80
2018-08-25T01:56:28.215Z,45.80
2018-08-25T01:57:33.245Z,45.80
2018-08-25T01:58:37.742Z,45.80
2018-08-25T01:59:42.895Z,45.80
2018-08-25T02:00:48.112Z,45.80
2018-08-25T02:01:52.506Z,45.80
2018-08-25T02:02:57.313Z,45.80
2018-08-25T02:04:01.606Z,45.80
2018-08-25T02:05:07.400Z,45.80
2018-08-25T02:06:12.310Z,46.50
2018-08-25T02:07:17.517Z,45.90
2018-08-25T02:08:21.927Z,45.80
2018-08-25T02:09:26.375Z,45.80
2018-08-25T02:10:30.851Z,45.80
2018-08-25T02:11:35.277Z,45.80
2018-08-25T02:12:40.876Z,45.80
2018-08-25T02:13:45.813Z,45.80
2018-08-25T02:14:50.362Z,45.80
2018-08-25T02:15:54.645Z,45.80
2018-08-25T02:16:59.111Z,45.80
2018-08-25T02:18:03.377Z,45.80
2018-08-25T02:19:08.453Z,45.80
2018-08-25T02:20:12.947Z,45.70
2018-08-25T02:21:17.354Z,45.70
2018-08-25T02:22:22.494Z,45.80
2018-08-25T02:23:26.965Z,45.70
2018-08-25T02:24:31.338Z,45.70
2018-08-25T02:25:35.759Z,45.70
2018-08-25T02:26:41.260Z,45.70
2018-08-25T02:27:46.841Z,45.70
2018-08-25T02:28:51.586Z,45.70
2018-08-25T02:29:55.993Z,45.70
2018-08-25T02:31:00.730Z,45.70
2018-08-25T02:32:05.022Z,45.70
2018-08-25T02:33:09.384Z,45.70
2018-08-25T02:34:14.451Z,45.70
2018-08-25T02:35:19.364Z,45.60
2018-08-25T02:36:23.813Z,45.70
2018-08-25T02:37:28.150Z,45.70
2018-08-25T02:38:34.851Z,45.60
2018-08-25T02:39:39.976Z,45.70
2018-08-25T02:40:44.385Z,45.70
2018-08-25T02:41:48.784Z,45.70
2018-08-25T02:42:53.721Z,45.60
2018-08-25T02:43:57.955Z,45.70
2018-08-25T02:45:02.929Z,45.60
2018-08-25T02:46:07.226Z,45.70
2018-08-25T02:47:12.430Z,45.70
2018-08-25T02:48:16.730Z,45.70
2018-08-25T02:49:21.739Z,45.60
2018-08-25T02:50:26.152Z,45.70
2018-08-25T02:51:30.780Z,45.70
2018-08-25T02:52:35.299Z,45.70
2018-08-25T02:53:40.257Z,45.70
2018-08-25T02:54:45.052Z,45.60
2018-08-25T02:55:49.507Z,45.60
2018-08-25T02:56:53.900Z,45.60
2018-08-25T02:57:58.442Z,45.60
2018-08-25T02:59:02.823Z,45.60
2018-08-25T03:00:07.879Z,45.60
2018-08-25T03:01:12.439Z,45.60
2018-08-25T03:02:17.415Z,45.60
2018-08-25T03:03:22.445Z,45.60
2018-08-25T03:04:26.845Z,45.60
2018-08-25T03:05:31.225Z,45.50
2018-08-25T03:06:35.636Z,45.50
2018-08-25T03:07:39.945Z,45.50
2018-08-25T03:08:45.005Z,45.50
2018-08-25T03:09:49.426Z,45.50
2018-08-25T03:10:53.677Z,45.50
2018-08-25T03:11:58.131Z,45.60
2018-08-25T03:13:03.166Z,45.60
2018-08-25T03:14:07.611Z,45.50
2018-08-25T03:15:12.052Z,45.50
2018-08-25T03:16:16.388Z,45.50
2018-08-25T03:17:20.651Z,45.50
2018-08-25T03:18:24.855Z,45.50
2018-08-25T03:19:29.690Z,45.50
2018-08-25T03:20:34.088Z,45.50
2018-08-25T03:21:39.100Z,45.50
2018-08-25T03:22:43.454Z,45.60
2018-08-25T03:23:47.882Z,45.50
2018-08-25T03:24:52.107Z,45.50
2018-08-25T03:25:56.536Z,45.60
2018-08-25T03:27:00.872Z,45.50
2018-08-25T03:28:05.997Z,45.50
2018-08-25T03:29:10.323Z,45.50
2018-08-25T03:30:15.331Z,45.50
2018-08-25T03:31:19.740Z,45.50
2018-08-25T03:32:24.013Z,45.50
2018-08-25T03:33:28.356Z,45.50
2018-08-25T03:34:32.636Z,45.50
2018-08-25T03:35:36.854Z,45.50
2018-08-25T03:36:42.081Z,45.50
2018-08-25T03:37:47.226Z,45.50
2018-08-25T03:38:51.769Z,45.50
2018-08-25T03:39:56.198Z,45.50
2018-08-25T03:41:01.635Z,46.10
2018-08-25T03:42:06.601Z,45.50
2018-08-25T03:43:10.968Z,45.50
2018-08-25T03:44:15.460Z,45.50
2018-08-25T03:45:19.824Z,45.50
2018-08-25T03:46:24.348Z,45.50
2018-08-25T03:47:29.357Z,45.40
2018-08-25T03:48:33.630Z,45.40
2018-08-25T03:49:38.677Z,45.50
2018-08-25T03:50:42.891Z,45.40
2018-08-25T03:51:47.226Z,45.40
2018-08-25T03:52:51.522Z,45.50
2018-08-25T03:53:56.531Z,45.40
2018-08-25T03:55:01.019Z,45.40
2018-08-25T03:56:05.618Z,45.30
2018-08-25T03:57:10.074Z,45.30
2018-08-25T03:58:15.179Z,45.30
2018-08-25T03:59:19.400Z,45.20
2018-08-25T04:00:23.740Z,45.20
2018-08-25T04:01:28.052Z,45.10
2018-08-25T04:02:32.382Z,45.10
2018-08-25T04:03:36.718Z,45.00
2018-08-25T04:04:41.747Z,45.00
2018-08-25T04:05:46.774Z,44.70
2018-08-25T04:06:51.004Z,44.10
2018-08-25T04:07:56.024Z,44.20
2018-08-25T04:09:01.085Z,44.30
2018-08-25T04:10:05.514Z,44.30
2018-08-25T04:11:09.903Z,44.30
2018-08-25T04:12:14.211Z,44.20
2018-08-25T04:13:18.619Z,44.20
2018-08-25T04:14:23.073Z,44.80
2018-08-25T04:15:27.424Z,44.10
2018-08-25T04:16:32.413Z,44.10
2018-08-25T04:17:36.719Z,44.00
2018-08-25T04:18:41.664Z,43.90
2018-08-25T04:19:45.955Z,43.90
2018-08-25T04:20:50.208Z,43.90
2018-08-25T04:21:54.482Z,43.80
2018-08-25T04:22:58.955Z,43.70
2018-08-25T04:24:03.998Z,43.70
2018-08-25T04:25:08.508Z,43.70
2018-08-25T04:26:12.917Z,43.70
2018-08-25T04:27:17.140Z,43.60
2018-08-25T04:28:21.464Z,43.20
2018-08-25T04:29:25.745Z,42.50
2018-08-25T04:30:30.068Z,42.30
2018-08-25T04:31:34.252Z,42.10
2018-08-25T04:32:38.671Z,42.00
2018-08-25T04:33:43.224Z,42.00
2018-08-25T04:34:47.635Z,42.00
2018-08-25T04:35:52.004Z,41.90
2018-08-25T04:36:57.157Z,41.90
2018-08-25T04:38:01.466Z,41.90
2018-08-25T04:39:05.726Z,41.90
2018-08-25T04:40:09.929Z,42.00
2018-08-25T04:41:14.233Z,42.00
2018-08-25T04:42:19.170Z,42.10
2018-08-25T04:43:23.545Z,42.30
2018-08-25T04:44:28.530Z,42.40
2018-08-25T04:45:33.629Z,42.40
2018-08-25T04:46:37.915Z,42.50
2018-08-25T04:47:42.368Z,43.20
2018-08-25T04:48:46.755Z,42.50
2018-08-25T04:49:51.779Z,43.20
2018-08-25T04:50:56.066Z,42.70
2018-08-25T04:52:00.469Z,42.70
2018-08-25T04:53:04.753Z,42.70
2018-08-25T04:54:09.202Z,42.70
2018-08-25T04:55:13.615Z,42.80
2018-08-25T04:56:17.994Z,42.80
2018-08-25T04:57:22.356Z,42.80
2018-08-25T04:58:26.921Z,42.80
2018-08-25T04:59:31.207Z,42.90
2018-08-25T05:00:36.198Z,42.90
2018-08-25T05:01:41.157Z,43.00
2018-08-25T05:02:45.627Z,43.00
2018-08-25T05:03:49.882Z,43.10
2018-08-25T05:04:54.385Z,43.10
2018-08-25T05:05:58.717Z,43.10
2018-08-25T05:07:03.794Z,43.10
2018-08-25T05:08:08.305Z,43.20
2018-08-25T05:09:12.782Z,43.10
2018-08-25T05:10:17.750Z,43.20
2018-08-25T05:11:22.010Z,43.30
2018-08-25T05:12:26.235Z,43.30
2018-08-25T05:13:30.781Z,43.30
2018-08-25T05:14:34.998Z,43.30
2018-08-25T05:15:40.014Z,43.30
2018-08-25T05:16:44.535Z,43.40
2018-08-25T05:17:48.816Z,43.30
2018-08-25T05:18:53.228Z,43.40
2018-08-25T05:19:57.698Z,43.30
2018-08-25T05:21:02.457Z,43.30
2018-08-25T05:22:07.605Z,43.30
2018-08-25T05:23:12.608Z,43.30
2018-08-25T05:24:16.930Z,43.30
2018-08-25T05:25:21.325Z,43.20
2018-08-25T05:26:25.637Z,43.20
2018-08-25T05:27:29.865Z,43.20
2018-08-25T05:28:34.243Z,43.20
2018-08-25T05:29:38.615Z,43.10
2018-08-25T05:30:42.949Z,43.80
2018-08-25T05:31:47.226Z,43.20
2018-08-25T05:32:51.468Z,43.30
2018-08-25T05:33:56.008Z,43.40
2018-08-25T05:35:01.193Z,43.50
2018-08-25T05:36:05.687Z,44.10
2018-08-25T05:37:10.195Z,43.60
2018-08-25T05:38:15.002Z,43.60
2018-08-25T05:39:19.577Z,43.60
2018-08-25T05:40:23.868Z,43.60
2018-08-25T05:41:29.229Z,43.60
2018-08-25T05:42:33.720Z,43.70
2018-08-25T05:43:38.926Z,43.70
2018-08-25T05:44:43.422Z,43.70
2018-08-25T05:45:47.758Z,43.80
2018-08-25T05:46:52.772Z,43.80
2018-08-25T05:47:57.178Z,43.80
2018-08-25T05:49:01.591Z,43.80
2018-08-25T05:50:05.969Z,43.80
2018-08-25T05:51:10.253Z,43.80
2018-08-25T05:52:14.523Z,43.80
2018-08-25T05:53:18.850Z,43.80
2018-08-25T05:54:23.227Z,43.80
2018-08-25T05:55:27.891Z,43.80
2018-08-25T05:56:32.146Z,43.70
2018-08-25T05:57:36.633Z,43.80
2018-08-25T05:58:41.013Z,43.80
2018-08-25T05:59:46.120Z,43.80
2018-08-25T06:00:50.432Z,43.80
2018-08-25T06:01:54.699Z,43.70
2018-08-25T06:02:59.021Z,43.80
2018-08-25T06:04:03.359Z,43.80
2018-08-25T06:05:07.594Z,43.80
2018-08-25T06:06:11.911Z,43.80
2018-08-25T06:07:16.379Z,43.80
2018-08-25T06:08:20.676Z,43.80
2018-08-25T06:09:25.084Z,43.80
2018-08-25T06:10:29.402Z,43.80
2018-08-25T06:11:33.864Z,43.80
2018-08-25T06:12:38.204Z,43.70
2018-08-25T06:13:42.791Z,43.70
2018-08-25T06:14:47.081Z,43.70
2018-08-25T06:15:51.979Z,43.60
2018-08-25T06:16:56.443Z,43.60
2018-08-25T06:18:00.933Z,43.60
2018-08-25T06:19:05.255Z,43.60
2018-08-25T06:20:09.664Z,43.60
2018-08-25T06:21:14.030Z,43.60
2018-08-25T06:22:18.356Z,43.50
2018-08-25T06:23:22.733Z,43.50
2018-08-25T06:24:27.818Z,43.50
2018-08-25T06:25:32.151Z,43.50
2018-08-25T06:26:36.592Z,43.50
2018-08-25T06:27:40.972Z,43.50
2018-08-25T06:28:45.269Z,43.50
2018-08-25T06:29:49.775Z,43.60
2018-08-25T06:30:54.803Z,43.50
2018-08-25T06:31:59.875Z,43.50
2018-08-25T06:33:04.355Z,43.60
2018-08-25T06:34:08.725Z,43.60
2018-08-25T06:35:12.957Z,43.60
2018-08-25T06:36:17.248Z,43.80
2018-08-25T06:37:21.764Z,43.60
2018-08-25T06:38:26.190Z,43.50
2018-08-25T06:39:30.669Z,43.60
2018-08-25T06:40:35.097Z,43.60
2018-08-25T06:41:39.576Z,43.70
2018-08-25T06:42:44.088Z,43.70
2018-08-25T06:43:49.206Z,43.60
2018-08-25T06:44:54.319Z,43.60
2018-08-25T06:45:58.624Z,43.60
2018-08-25T06:47:03.034Z,43.60
2018-08-25T06:48:07.560Z,43.60
2018-08-25T06:49:12.089Z,44.30
2018-08-25T06:50:16.922Z,43.60
2018-08-25T06:51:22.053Z,43.60
2018-08-25T06:52:26.450Z,43.60
2018-08-25T06:53:31.474Z,43.60
2018-08-25T06:54:37.104Z,43.60
2018-08-25T06:55:42.353Z,43.70
2018-08-25T06:56:46.873Z,43.60
2018-08-25T06:57:51.254Z,43.70
2018-08-25T06:58:55.709Z,43.60
2018-08-25T06:59:59.973Z,43.70
2018-08-25T07:01:04.655Z,43.70
2018-08-25T07:02:09.736Z,43.70
2018-08-25T07:03:15.365Z,43.70
2018-08-25T07:04:19.847Z,43.70
2018-08-25T07:05:24.040Z,43.70
2018-08-25T07:06:28.232Z,43.60
2018-08-25T07:07:33.212Z,43.70
2018-08-25T07:08:37.478Z,43.70
2018-08-25T07:09:42.491Z,43.70
2018-08-25T07:10:46.744Z,43.70
2018-08-25T07:12:03.588Z,43.70
2018-08-25T07:13:08.001Z,43.70
2018-08-25T07:14:12.412Z,43.70
2018-08-25T07:15:17.345Z,43.80
2018-08-25T07:16:22.493Z,43.80
2018-08-25T07:17:26.767Z,43.80
2018-08-25T07:18:31.223Z,43.80
2018-08-25T07:19:35.597Z,43.80
2018-08-25T07:20:39.938Z,43.90
2018-08-25T07:21:44.764Z,44.50
2018-08-25T07:22:49.125Z,43.90
2018-08-25T07:23:53.565Z,43.90
2018-08-25T07:24:58.069Z,43.90
2018-08-25T07:26:02.522Z,43.90
2018-08-25T07:27:06.715Z,43.90
2018-08-25T07:28:11.813Z,44.00
2018-08-25T07:29:16.168Z,43.90
2018-08-25T07:30:21.258Z,43.90
2018-08-25T07:31:25.682Z,44.00
2018-08-25T07:32:29.927Z,44.00
2018-08-25T07:33:34.321Z,44.00
2018-08-25T07:34:39.602Z,43.90
2018-08-25T07:35:43.855Z,43.90
2018-08-25T07:36:49.071Z,43.90
2018-08-25T07:37:53.469Z,43.90
2018-08-25T07:38:58.440Z,43.90
2018-08-25T07:40:02.896Z,44.00
2018-08-25T07:41:07.575Z,44.00
2018-08-25T07:42:13.068Z,43.90
2018-08-25T07:43:17.451Z,43.90
2018-08-25T07:44:21.891Z,44.00
2018-08-25T07:45:26.319Z,44.00
2018-08-25T07:46:31.285Z,44.00
2018-08-25T07:47:35.626Z,43.90
2018-08-25T07:48:40.191Z,43.90
2018-08-25T07:49:45.214Z,43.80
2018-08-25T07:50:49.545Z,43.80
2018-08-25T07:51:54.253Z,43.70
2018-08-25T07:52:58.805Z,43.70
2018-08-25T07:54:03.789Z,43.70
2018-08-25T07:55:08.244Z,43.70
2018-08-25T07:56:13.367Z,43.70
2018-08-25T07:57:17.784Z,43.60
2018-08-25T07:58:22.408Z,43.60
2018-08-25T07:59:26.770Z,43.60
2018-08-25T08:00:31.857Z,43.50
2018-08-25T08:01:36.218Z,44.20
2018-08-25T08:02:41.368Z,43.60
2018-08-25T08:03:46.265Z,43.60
2018-08-25T08:04:51.455Z,43.50
2018-08-25T08:05:55.867Z,43.50
2018-08-25T08:07:01.272Z,43.50
2018-08-25T08:08:06.607Z,43.60
2018-08-25T08:09:11.103Z,44.20
2018-08-25T08:10:17.358Z,43.60
2018-08-25T08:11:22.168Z,43.60
2018-08-25T08:12:26.991Z,43.60
2018-08-25T08:13:32.852Z,43.70
2018-08-25T08:14:37.722Z,43.70
2018-08-25T08:15:42.445Z,43.70
2018-08-25T08:16:48.171Z,43.70
2018-08-25T08:17:52.615Z,43.70
2018-08-25T08:18:57.108Z,43.70
2018-08-25T08:20:01.652Z,43.80
2018-08-25T08:21:07.146Z,43.80
2018-08-25T08:22:11.998Z,43.80
2018-08-25T08:23:16.723Z,43.80
2018-08-25T08:24:26.396Z,43.80
2018-08-25T08:25:32.343Z,43.80
2018-08-25T08:26:37.750Z,43.80
2018-08-25T08:27:43.784Z,43.90
2018-08-25T08:28:48.405Z,43.80
2018-08-25T08:29:52.981Z,43.80
2018-08-25T08:30:58.068Z,43.80
2018-08-25T08:32:02.831Z,43.80
2018-08-25T08:33:07.197Z,43.80
2018-08-25T08:34:13.486Z,43.70
2018-08-25T08:35:18.133Z,43.70
2018-08-25T08:36:24.165Z,43.80
2018-08-25T08:37:29.072Z,43.80
2018-08-25T08:38:33.679Z,43.80
2018-08-25T08:39:39.535Z,43.90
2018-08-25T08:40:45.229Z,43.90
2018-08-25T08:41:49.881Z,43.90
2018-08-25T08:42:54.564Z,44.00
2018-08-25T08:43:59.947Z,44.00
2018-08-25T08:45:05.262Z,44.00
2018-08-25T08:46:10.442Z,44.70
2018-08-25T08:47:15.352Z,44.10
2018-08-25T08:48:19.926Z,44.10
2018-08-25T08:49:24.332Z,44.10
2018-08-25T08:50:29.584Z,44.70
2018-08-25T08:51:34.353Z,44.20
2018-08-25T08:52:39.101Z,44.20
2018-08-25T08:53:46.577Z,44.30
2018-08-25T08:54:51.245Z,44.30
2018-08-25T08:55:56.000Z,44.30
2018-08-25T08:57:00.492Z,44.30
2018-08-25T08:58:04.936Z,44.50
2018-08-25T08:59:10.255Z,44.40
2018-08-25T09:00:14.944Z,44.40
2018-08-25T09:01:20.627Z,44.50
2018-08-25T09:02:24.994Z,44.50
2018-08-25T09:03:30.257Z,44.50
2018-08-25T09:04:34.935Z,44.50
2018-08-25T09:05:39.802Z,44.50
2018-08-25T09:06:44.746Z,44.70
2018-08-25T09:07:49.269Z,44.60
2018-08-25T09:08:59.262Z,45.30
2018-08-25T09:10:04.542Z,44.60
2018-08-25T09:11:09.262Z,44.70
2018-08-25T09:12:14.114Z,44.70
2018-08-25T09:13:19.381Z,44.70
2018-08-25T09:14:23.724Z,44.60
2018-08-25T09:15:29.179Z,44.60
2018-08-25T09:16:34.290Z,44.60
2018-08-25T09:17:38.769Z,44.70
2018-08-25T09:18:43.971Z,44.80
2018-08-25T09:19:48.507Z,45.00
2018-08-25T09:20:53.533Z,44.80
2018-08-25T09:21:58.087Z,44.80
2018-08-25T09:23:02.591Z,44.80
2018-08-25T09:24:07.956Z,44.80
2018-08-25T09:25:12.993Z,44.80
2018-08-25T09:26:17.442Z,44.80
2018-08-25T09:27:22.403Z,44.80
2018-08-25T09:28:27.478Z,44.80
2018-08-25T09:29:31.960Z,44.80
2018-08-25T09:30:36.418Z,44.80
2018-08-25T09:31:41.445Z,44.80
2018-08-25T09:32:45.819Z,44.90
2018-08-25T09:33:50.124Z,44.90
2018-08-25T09:34:54.584Z,44.80
2018-08-25T09:35:58.989Z,44.80
2018-08-25T09:37:03.476Z,44.80
2018-08-25T09:38:08.459Z,44.80
2018-08-25T09:39:12.808Z,44.80
2018-08-25T09:40:17.175Z,45.00
2018-08-25T09:41:22.243Z,44.90
2018-08-25T09:42:26.944Z,44.90
2018-08-25T09:43:31.964Z,44.90
2018-08-25T09:44:36.948Z,45.00
2018-08-25T09:45:41.313Z,44.90
2018-08-25T09:46:46.335Z,44.90
2018-08-25T09:47:50.636Z,45.00
2018-08-25T09:48:55.322Z,45.00
2018-08-25T09:49:59.627Z,44.90
2018-08-25T09:51:04.083Z,44.90
2018-08-25T09:52:08.446Z,45.00
2018-08-25T09:53:13.399Z,45.10
2018-08-25T09:54:17.681Z,45.10
2018-08-25T09:55:22.643Z,45.20
2018-08-25T09:56:27.785Z,45.10
2018-08-25T09:57:32.233Z,45.20
2018-08-25T09:58:37.335Z,45.10
2018-08-25T09:59:41.660Z,45.20
2018-08-25T10:00:46.584Z,45.10
2018-08-25T10:01:50.965Z,45.10
2018-08-25T10:02:55.923Z,45.10
2018-08-25T10:04:00.187Z,45.20
2018-08-25T10:05:04.498Z,45.20
2018-08-25T10:06:08.936Z,45.20
2018-08-25T10:07:13.873Z,45.20
2018-08-25T10:08:18.358Z,45.10
2018-08-25T10:09:22.879Z,45.10
2018-08-25T10:10:27.569Z,45.30
2018-08-25T10:11:32.587Z,45.20
2018-08-25T10:12:36.906Z,45.10
2018-08-25T10:13:41.339Z,45.10
2018-08-25T10:14:45.779Z,45.20
2018-08-25T10:15:50.108Z,45.10
2018-08-25T10:16:54.682Z,45.20
2018-08-25T10:17:59.032Z,45.20
2018-08-25T10:19:04.100Z,45.20
2018-08-25T10:20:08.512Z,45.20
2018-08-25T10:21:13.583Z,45.10
2018-08-25T10:22:17.970Z,45.20
2018-08-25T10:23:22.480Z,45.10
2018-08-25T10:24:26.929Z,45.10
2018-08-25T10:25:31.908Z,45.20
2018-08-25T10:26:36.263Z,45.20
2018-08-25T10:27:40.690Z,45.30
2018-08-25T10:28:45.742Z,45.30
2018-08-25T10:29:50.160Z,45.30
2018-08-25T10:30:54.478Z,45.30
2018-08-25T10:31:58.827Z,45.30
2018-08-25T10:33:04.065Z,45.40
2018-08-25T10:34:09.218Z,45.30
2018-08-25T10:35:13.779Z,45.30
2018-08-25T10:36:18.024Z,45.30
2018-08-25T10:37:23.085Z,45.40
2018-08-25T10:38:28.276Z,46.00
2018-08-25T10:39:32.649Z,45.40
2018-08-25T10:40:37.862Z,45.40
2018-08-25T10:41:42.685Z,45.50
2018-08-25T10:42:46.897Z,45.60
2018-08-25T10:43:57.798Z,45.60
2018-08-25T10:45:03.359Z,45.70
2018-08-25T10:46:07.600Z,45.80
2018-08-25T10:47:11.884Z,46.00
2018-08-25T10:48:16.335Z,46.00
2018-08-25T10:49:21.309Z,46.20
2018-08-25T10:50:26.526Z,46.20
2018-08-25T10:51:31.533Z,46.30
2018-08-25T10:52:35.836Z,46.30
2018-08-25T10:53:40.888Z,46.30
2018-08-25T10:54:45.945Z,46.40
2018-08-25T10:55:50.269Z,46.50
2018-08-25T10:56:54.753Z,46.50
2018-08-25T10:57:59.047Z,46.30
2018-08-25T10:59:03.295Z,46.20
2018-08-25T11:00:07.935Z,46.40
2018-08-25T11:01:12.229Z,46.20
2018-08-25T11:02:16.681Z,46.30
2018-08-25T11:03:21.261Z,46.30
2018-08-25T11:04:25.930Z,46.20
2018-08-25T11:05:31.121Z,46.30
2018-08-25T11:06:36.263Z,46.20
2018-08-25T11:07:40.973Z,46.30
2018-08-25T11:08:45.503Z,46.30
2018-08-25T11:09:50.567Z,46.30
2018-08-25T11:10:03.369Z,46.30
2018-08-25T11:11:08.598Z,46.30
2018-08-25T11:12:13.070Z,46.20
2018-08-25T11:13:17.382Z,46.20
2018-08-25T11:14:21.929Z,46.20
2018-08-25T11:15:26.463Z,46.10
2018-08-25T11:16:31.839Z,46.40
2018-08-25T11:17:36.269Z,46.10
2018-08-25T11:18:40.764Z,46.10
2018-08-25T11:19:45.265Z,46.10
2018-08-25T11:20:49.971Z,46.10
2018-08-25T11:21:54.468Z,46.00
2018-08-25T11:22:58.819Z,46.00
2018-08-25T11:24:03.343Z,46.10
2018-08-25T11:25:07.643Z,46.10
2018-08-25T11:26:13.734Z,46.10
2018-08-25T11:27:18.395Z,46.10
2018-08-25T11:28:23.108Z,46.10
2018-08-25T11:29:28.787Z,46.10
2018-08-25T11:30:33.496Z,46.10
2018-08-25T11:31:38.239Z,46.00
2018-08-25T11:32:42.882Z,46.10
2018-08-25T11:33:48.097Z,46.10
2018-08-25T11:34:53.404Z,46.10
2018-08-25T11:35:58.623Z,46.00
2018-08-25T11:37:03.021Z,46.10
2018-08-25T11:38:08.184Z,46.10
2018-08-25T11:39:12.598Z,46.10
2018-08-25T11:40:17.041Z,46.10
2018-08-25T11:41:21.535Z,46.00
2018-08-25T11:42:26.557Z,46.00
2018-08-25T11:43:31.988Z,46.10
2018-08-25T11:44:36.523Z,46.00
2018-08-25T11:45:41.740Z,46.00
2018-08-25T11:46:46.280Z,46.00
2018-08-25T11:47:50.649Z,45.90
2018-08-25T11:48:55.122Z,45.90
2018-08-25T11:49:59.684Z,45.90
2018-08-25T11:51:04.751Z,46.00
2018-08-25T11:52:09.810Z,46.00
2018-08-25T11:53:14.317Z,46.00
2018-08-25T11:54:18.750Z,46.00
2018-08-25T11:55:23.086Z,45.90
2018-08-25T11:56:27.457Z,45.90
2018-08-25T11:57:32.471Z,45.90
2018-08-25T11:58:37.467Z,45.90
2018-08-25T11:59:41.727Z,45.90
2018-08-25T12:00:46.856Z,45.90
2018-08-25T12:01:52.048Z,45.90
2018-08-25T12:02:56.583Z,45.90
2018-08-25T12:04:00.918Z,46.00
2018-08-25T12:05:06.651Z,46.00
2018-08-25T12:06:11.080Z,45.90
2018-08-25T12:07:15.710Z,45.90
2018-08-25T12:08:20.019Z,45.90
2018-08-25T12:09:24.512Z,45.90
2018-08-25T12:10:29.020Z,45.90
2018-08-25T12:11:34.144Z,45.90
2018-08-25T12:12:38.477Z,45.90
2018-08-25T12:13:42.797Z,46.00
2018-08-25T12:14:47.172Z,46.00
2018-08-25T12:15:51.465Z,46.10
2018-08-25T12:16:55.889Z,46.10
2018-08-25T12:18:01.059Z,46.00
2018-08-25T12:19:06.346Z,45.90
2018-08-25T12:20:10.859Z,45.90
2018-08-25T12:21:15.396Z,45.90
2018-08-25T12:22:19.752Z,45.90
2018-08-25T12:23:24.114Z,45.90
2018-08-25T12:24:28.623Z,45.90
2018-08-25T12:25:33.769Z,45.80
2018-08-25T12:26:38.351Z,46.50
2018-08-25T12:27:42.872Z,45.90
2018-08-25T12:28:48.049Z,45.90
2018-08-25T12:29:52.666Z,45.70
2018-08-25T12:30:57.213Z,45.70
2018-08-25T12:32:01.698Z,45.70
2018-08-25T12:33:06.892Z,45.70
2018-08-25T12:34:11.451Z,45.70
2018-08-25T12:35:16.577Z,45.70
2018-08-25T12:36:20.874Z,45.80
2018-08-25T12:37:26.079Z,45.80
2018-08-25T12:38:31.196Z,45.80
2018-08-25T12:39:35.576Z,45.80
2018-08-25T12:40:39.863Z,45.90
2018-08-25T12:41:44.283Z,45.80
2018-08-25T12:42:48.820Z,45.80
2018-08-25T12:43:53.813Z,45.80
2018-08-25T12:44:58.286Z,45.70
2018-08-25T12:46:04.473Z,45.60
2018-08-25T12:47:08.913Z,45.70
2018-08-25T12:48:13.218Z,45.60
2018-08-25T12:49:17.717Z,45.60
2018-08-25T12:50:22.131Z,45.60
2018-08-25T12:51:26.550Z,45.60
2018-08-25T12:52:31.106Z,45.60
2018-08-25T12:53:36.356Z,45.60
2018-08-25T12:54:40.810Z,45.60
2018-08-25T12:55:45.260Z,45.60
2018-08-25T12:56:49.556Z,45.60
2018-08-25T12:57:54.044Z,45.60
2018-08-25T12:58:59.095Z,45.60
2018-08-25T13:00:04.027Z,45.70
2018-08-25T13:01:09.552Z,45.70
2018-08-25T13:02:13.872Z,45.70
2018-08-25T13:03:18.830Z,45.70
2018-08-25T13:04:23.158Z,45.70
2018-08-25T13:05:27.583Z,45.70
2018-08-25T13:06:31.975Z,45.70
2018-08-25T13:07:36.568Z,45.60
2018-08-25T13:08:41.621Z,45.50
2018-08-25T13:09:45.944Z,45.50
2018-08-25T13:10:50.306Z,45.50
2018-08-25T13:11:54.734Z,45.40
2018-08-25T13:12:59.244Z,45.40
2018-08-25T13:14:03.655Z,45.60
2018-08-25T13:15:08.062Z,45.60
2018-08-25T13:16:12.343Z,45.40
2018-08-25T13:17:16.863Z,45.30
2018-08-25T13:18:21.192Z,45.30
2018-08-25T13:19:25.691Z,45.30
2018-08-25T13:20:30.279Z,45.30
2018-08-25T13:21:34.704Z,45.20
2018-08-25T13:22:39.133Z,45.20
2018-08-25T13:23:43.459Z,45.10
2018-08-25T13:24:47.871Z,45.10
2018-08-25T13:25:52.346Z,45.10
2018-08-25T13:26:56.715Z,45.10
2018-08-25T13:28:01.040Z,45.10
2018-08-25T13:29:06.373Z,45.00
2018-08-25T13:30:11.751Z,45.00
2018-08-25T13:31:16.300Z,45.10
2018-08-25T13:32:21.420Z,45.10
2018-08-25T13:33:25.767Z,45.70
2018-08-25T13:34:30.280Z,45.00
2018-08-25T13:35:34.834Z,45.10
2018-08-25T13:36:39.260Z,45.10
2018-08-25T13:37:44.393Z,45.10
2018-08-25T13:38:48.799Z,45.10
2018-08-25T13:39:53.885Z,45.10
2018-08-25T13:40:58.296Z,45.10
2018-08-25T13:42:02.574Z,45.10
2018-08-25T13:43:06.848Z,45.10
2018-08-25T13:44:11.314Z,45.10
2018-08-25T13:45:17.024Z,45.10
2018-08-25T13:46:22.084Z,45.10
2018-08-25T13:47:26.536Z,45.10
2018-08-25T13:48:30.888Z,45.10
2018-08-25T13:49:35.462Z,45.10
2018-08-25T13:50:39.847Z,45.10
2018-08-25T13:51:44.356Z,45.10